TTW235 RJCC-RCTP
Flight info
| Callsign | TTW235 |
|---|---|
| Flight time | N/A |
| Altitude | 32000 |
| Route | DALBI Y120 TAPPI Y12 ARIKA Y14 MIHOU Y45 HKC Y50 IGMON A1 DRAKE |
| Aircraft | A320/M-SDE3FGHIRWY/LB1 |
Departure
| Time | 2026-02-17 06:31 |
|---|---|
| Airport | New Chitose Airport (RJCC) |
Arrival
| Time | N/A |
|---|---|
| Airport | Taiwan Taoyuan International Airport (RCTP) |
| Time | Latitude | Longitude | Altitude | Speed | Heading |
|---|---|---|---|---|---|
| 2026-02-17 05:43 | 42.78485 | 141.67540 | 85 ft | 0 kts | 82° |
| 2026-02-17 06:16 | 42.78484 | 141.67526 | 85 ft | 2 kts | 82° |
| 2026-02-17 06:16 | 42.78482 | 141.67506 | 84 ft | 2 kts | 82° |
| 2026-02-17 06:17 | 42.78478 | 141.67467 | 84 ft | 2 kts | 82° |
| 2026-02-17 06:17 | 42.78474 | 141.67447 | 84 ft | 2 kts | 55° |
| 2026-02-17 06:17 | 42.78463 | 141.67432 | 84 ft | 2 kts | 31° |
| 2026-02-17 06:17 | 42.78450 | 141.67425 | 84 ft | 2 kts | 5° |
| 2026-02-17 06:18 | 42.78435 | 141.67427 | 85 ft | 2 kts | 347° |
| 2026-02-17 06:18 | 42.78420 | 141.67430 | 85 ft | 2 kts | 354° |
| 2026-02-17 06:18 | 42.78409 | 141.67432 | 85 ft | 0 kts | 352° |
| 2026-02-17 06:22 | 42.78410 | 141.67432 | 85 ft | 0 kts | 351° |
| 2026-02-17 06:22 | 42.78428 | 141.67427 | 85 ft | 4 kts | 352° |
| 2026-02-17 06:23 | 42.78493 | 141.67348 | 84 ft | 6 kts | 303° |
| 2026-02-17 06:23 | 42.78537 | 141.67313 | 83 ft | 8 kts | 342° |
| 2026-02-17 06:23 | 42.78603 | 141.67297 | 82 ft | 11 kts | 353° |
| 2026-02-17 06:23 | 42.78687 | 141.67296 | 80 ft | 12 kts | 359° |
| 2026-02-17 06:24 | 42.78778 | 141.67270 | 79 ft | 13 kts | 350° |
| 2026-02-17 06:24 | 42.78876 | 141.67248 | 77 ft | 14 kts | 342° |
| 2026-02-17 06:24 | 42.78980 | 141.67232 | 76 ft | 15 kts | 359° |
| 2026-02-17 06:24 | 42.79075 | 141.67258 | 74 ft | 14 kts | 60° |
| 2026-02-17 06:25 | 42.79091 | 141.67380 | 75 ft | 12 kts | 84° |
| 2026-02-17 06:25 | 42.79100 | 141.67499 | 75 ft | 12 kts | 86° |
| 2026-02-17 06:25 | 42.79115 | 141.67616 | 76 ft | 12 kts | 80° |
| 2026-02-17 06:25 | 42.79124 | 141.67722 | 78 ft | 10 kts | 85° |
| 2026-02-17 06:26 | 42.79133 | 141.67824 | 78 ft | 11 kts | 87° |
| 2026-02-17 06:26 | 42.79134 | 141.67926 | 80 ft | 9 kts | 95° |
| 2026-02-17 06:26 | 42.79122 | 141.68010 | 81 ft | 8 kts | 105° |
| 2026-02-17 06:27 | 42.79077 | 141.68146 | 82 ft | 7 kts | 120° |
| 2026-02-17 06:27 | 42.79063 | 141.68175 | 83 ft | 0 kts | 122° |
| 2026-02-17 06:27 | 42.79063 | 141.68176 | 83 ft | 0 kts | 123° |
| 2026-02-17 06:27 | 42.79053 | 141.68196 | 83 ft | 5 kts | 125° |
| 2026-02-17 06:28 | 42.79030 | 141.68239 | 83 ft | 5 kts | 130° |
| 2026-02-17 06:28 | 42.79007 | 141.68271 | 84 ft | 5 kts | 138° |
| 2026-02-17 06:28 | 42.78962 | 141.68318 | 85 ft | 10 kts | 147° |
| 2026-02-17 06:28 | 42.78879 | 141.68372 | 86 ft | 15 kts | 158° |
| 2026-02-17 06:29 | 42.78800 | 141.68436 | 87 ft | 10 kts | 116° |
| 2026-02-17 06:29 | 42.78803 | 141.68541 | 86 ft | 12 kts | 80° |
| 2026-02-17 06:29 | 42.78816 | 141.68678 | 80 ft | 13 kts | 82° |
| 2026-02-17 06:29 | 42.78827 | 141.68791 | 78 ft | 9 kts | 107° |
| 2026-02-17 06:30 | 42.78796 | 141.68819 | 77 ft | 0 kts | 174° |
| 2026-02-17 06:30 | 42.78795 | 141.68819 | 77 ft | 0 kts | 173° |
| 2026-02-17 06:30 | 42.78648 | 141.68842 | 77 ft | 50 kts | 174° |
| 2026-02-17 06:31 | 42.77182 | 141.69102 | 76 ft | 155 kts | 173° |
| 2026-02-17 06:31 | 42.76120 | 141.69319 | 631 ft | 150 kts | 173° |
| 2026-02-17 06:31 | 42.75062 | 141.69556 | 964 ft | 164 kts | 175° |
| 2026-02-17 06:31 | 42.73875 | 141.69795 | 1326 ft | 180 kts | 176° |
| 2026-02-17 06:32 | 42.72586 | 141.70041 | 1676 ft | 190 kts | 177° |
| 2026-02-17 06:32 | 42.71188 | 141.70300 | 1821 ft | 213 kts | 178° |
| 2026-02-17 06:32 | 42.69680 | 141.70578 | 2142 ft | 229 kts | 178° |
| 2026-02-17 06:32 | 42.68035 | 141.70880 | 2479 ft | 245 kts | 178° |
| 2026-02-17 06:33 | 42.66806 | 141.71111 | 2854 ft | 251 kts | 178° |
| 2026-02-17 06:33 | 42.64805 | 141.71501 | 3668 ft | 254 kts | 178° |
| 2026-02-17 06:33 | 42.63059 | 141.71841 | 4343 ft | 257 kts | 178° |
| 2026-02-17 06:33 | 42.61293 | 141.72185 | 5036 ft | 259 kts | 178° |
| 2026-02-17 06:34 | 42.59495 | 141.72459 | 5731 ft | 258 kts | 188° |
| 2026-02-17 06:34 | 42.57840 | 141.71851 | 6409 ft | 247 kts | 216° |
| 2026-02-17 06:34 | 42.56598 | 141.70326 | 7098 ft | 243 kts | 238° |
| 2026-02-17 06:35 | 42.54979 | 141.66318 | 8489 ft | 245 kts | 243° |
| 2026-02-17 06:35 | 42.54171 | 141.64298 | 9158 ft | 245 kts | 243° |
| 2026-02-17 06:35 | 42.53364 | 141.62282 | 9712 ft | 250 kts | 243° |
| 2026-02-17 06:35 | 42.52511 | 141.60159 | 10001 ft | 264 kts | 243° |
| 2026-02-17 06:36 | 42.51606 | 141.57909 | 10275 ft | 277 kts | 243° |
| 2026-02-17 06:36 | 42.50669 | 141.55568 | 10535 ft | 290 kts | 243° |
| 2026-02-17 06:36 | 42.49683 | 141.53114 | 10787 ft | 303 kts | 243° |
| 2026-02-17 06:36 | 42.48658 | 141.50565 | 11025 ft | 315 kts | 242° |
| 2026-02-17 06:37 | 42.47597 | 141.47934 | 11450 ft | 321 kts | 242° |
| 2026-02-17 06:37 | 42.46538 | 141.45322 | 12038 ft | 322 kts | 242° |
| 2026-02-17 06:37 | 42.45465 | 141.42673 | 12587 ft | 323 kts | 242° |
| 2026-02-17 06:37 | 42.44381 | 141.39990 | 13085 ft | 325 kts | 242° |
| 2026-02-17 06:38 | 42.43292 | 141.37300 | 13597 ft | 327 kts | 242° |
| 2026-02-17 06:38 | 42.42196 | 141.34598 | 14063 ft | 329 kts | 241° |
| 2026-02-17 06:38 | 42.41102 | 141.31902 | 14572 ft | 331 kts | 241° |
| 2026-02-17 06:39 | 42.38848 | 141.26356 | 15320 ft | 341 kts | 242° |
| 2026-02-17 06:39 | 42.37705 | 141.23541 | 15795 ft | 342 kts | 242° |
| 2026-02-17 06:39 | 42.36575 | 141.20763 | 16229 ft | 344 kts | 241° |
| 2026-02-17 06:39 | 42.35425 | 141.17937 | 16632 ft | 346 kts | 241° |
| 2026-02-17 06:40 | 42.34261 | 141.15085 | 17011 ft | 349 kts | 241° |
| 2026-02-17 06:40 | 42.33084 | 141.12196 | 17470 ft | 350 kts | 241° |
| 2026-02-17 06:40 | 42.31923 | 141.09357 | 17905 ft | 351 kts | 241° |
| 2026-02-17 06:40 | 42.30722 | 141.06429 | 18221 ft | 356 kts | 241° |
| 2026-02-17 06:41 | 42.29533 | 141.03513 | 18636 ft | 356 kts | 241° |
| 2026-02-17 06:41 | 42.28355 | 141.00636 | 19168 ft | 355 kts | 240° |
| 2026-02-17 06:41 | 42.27154 | 140.97710 | 19514 ft | 357 kts | 241° |
| 2026-02-17 06:41 | 42.25942 | 140.94766 | 19758 ft | 362 kts | 241° |
| 2026-02-17 06:42 | 42.24728 | 140.91803 | 20115 ft | 363 kts | 240° |
| 2026-02-17 06:42 | 42.23515 | 140.88850 | 20602 ft | 360 kts | 240° |
| 2026-02-17 06:42 | 42.22315 | 140.85938 | 20998 ft | 360 kts | 240° |
| 2026-02-17 06:43 | 42.19856 | 140.79991 | 21441 ft | 367 kts | 240° |
| 2026-02-17 06:43 | 42.18848 | 140.77551 | 21774 ft | 366 kts | 240° |
| 2026-02-17 06:43 | 42.17451 | 140.74167 | 22166 ft | 366 kts | 240° |
| 2026-02-17 06:43 | 42.16216 | 140.71184 | 22416 ft | 369 kts | 240° |
| 2026-02-17 06:44 | 42.14958 | 140.68146 | 22586 ft | 372 kts | 239° |
| 2026-02-17 06:44 | 42.13730 | 140.65172 | 22875 ft | 372 kts | 239° |
| 2026-02-17 06:44 | 42.12466 | 140.62125 | 23209 ft | 370 kts | 238° |
| 2026-02-17 06:44 | 42.11228 | 140.59142 | 23544 ft | 369 kts | 238° |
| 2026-02-17 06:45 | 42.09952 | 140.56126 | 23815 ft | 369 kts | 236° |
| 2026-02-17 06:45 | 42.08406 | 140.53571 | 23931 ft | 370 kts | 224° |
| 2026-02-17 06:45 | 42.06317 | 140.51448 | 24153 ft | 375 kts | 213° |
| 2026-02-17 06:45 | 42.03921 | 140.50023 | 24249 ft | 382 kts | 201° |
| 2026-02-17 06:46 | 42.01444 | 140.49066 | 24543 ft | 380 kts | 200° |
| 2026-02-17 06:46 | 41.98924 | 140.48103 | 24955 ft | 376 kts | 200° |
| 2026-02-17 06:46 | 41.96422 | 140.47157 | 25225 ft | 376 kts | 200° |
| 2026-02-17 06:47 | 41.91362 | 140.45250 | 25445 ft | 383 kts | 200° |
| 2026-02-17 06:47 | 41.88784 | 140.44281 | 25532 ft | 386 kts | 200° |
| 2026-02-17 06:47 | 41.86225 | 140.43323 | 25787 ft | 384 kts | 200° |
| 2026-02-17 06:47 | 41.83688 | 140.42377 | 26063 ft | 382 kts | 200° |
| 2026-02-17 06:48 | 41.81106 | 140.41415 | 26304 ft | 380 kts | 200° |
| 2026-02-17 06:48 | 41.78589 | 140.40477 | 26591 ft | 378 kts | 200° |
| 2026-02-17 06:48 | 41.76129 | 140.39565 | 26738 ft | 380 kts | 200° |
| 2026-02-17 06:48 | 41.73539 | 140.38602 | 26816 ft | 382 kts | 200° |
| 2026-02-17 06:49 | 41.70973 | 140.37651 | 27140 ft | 378 kts | 200° |
| 2026-02-17 06:49 | 41.68467 | 140.36723 | 27405 ft | 376 kts | 200° |
| 2026-02-17 06:49 | 41.65953 | 140.35790 | 27524 ft | 378 kts | 200° |
| 2026-02-17 06:49 | 41.63420 | 140.34851 | 27648 ft | 380 kts | 199° |
| 2026-02-17 06:50 | 41.60851 | 140.33900 | 27802 ft | 380 kts | 199° |
| 2026-02-17 06:50 | 41.58294 | 140.32956 | 27989 ft | 380 kts | 199° |
| 2026-02-17 06:50 | 41.55748 | 140.32019 | 28156 ft | 381 kts | 199° |
| 2026-02-17 06:51 | 41.50698 | 140.30159 | 28584 ft | 378 kts | 199° |
| 2026-02-17 06:51 | 41.48192 | 140.29239 | 28781 ft | 377 kts | 199° |
| 2026-02-17 06:51 | 41.45657 | 140.28307 | 28934 ft | 377 kts | 199° |
| 2026-02-17 06:51 | 41.43145 | 140.27387 | 29092 ft | 377 kts | 199° |
| 2026-02-17 06:52 | 41.40612 | 140.26454 | 29281 ft | 376 kts | 199° |
| 2026-02-17 06:52 | 41.38109 | 140.25537 | 29450 ft | 375 kts | 199° |
| 2026-02-17 06:52 | 41.35576 | 140.24608 | 29591 ft | 375 kts | 199° |
| 2026-02-17 06:52 | 41.33081 | 140.23695 | 29744 ft | 375 kts | 199° |
| 2026-02-17 06:53 | 41.30541 | 140.22761 | 29898 ft | 375 kts | 199° |
| 2026-02-17 06:54 | 41.24880 | 140.20705 | 31359 ft | 382 kts | 201° |
| 2026-02-17 06:54 | 41.23297 | 140.20122 | 31398 ft | 384 kts | 201° |
| 2026-02-17 06:55 | 41.18584 | 140.18388 | 31601 ft | 390 kts | 201° |
| 2026-02-17 06:55 | 41.15936 | 140.17421 | 31678 ft | 393 kts | 201° |
| 2026-02-17 06:55 | 41.10620 | 140.15520 | 31851 ft | 400 kts | 200° |
| 2026-02-17 06:56 | 41.05177 | 140.13644 | 32017 ft | 407 kts | 200° |
| 2026-02-17 06:56 | 40.99669 | 140.11746 | 32124 ft | 413 kts | 201° |
| 2026-02-17 06:57 | 40.94045 | 140.09801 | 32133 ft | 422 kts | 200° |
| 2026-02-17 06:57 | 40.88326 | 140.07828 | 32110 ft | 429 kts | 200° |
| 2026-02-17 06:58 | 40.82545 | 140.05839 | 32139 ft | 429 kts | 200° |
| 2026-02-17 06:59 | 40.73873 | 140.02861 | 32118 ft | 431 kts | 200° |
| 2026-02-17 06:59 | 40.68063 | 140.00870 | 32116 ft | 430 kts | 200° |
| 2026-02-17 07:00 | 40.62249 | 139.98880 | 32092 ft | 430 kts | 200° |
| 2026-02-17 07:00 | 40.56479 | 139.96907 | 32081 ft | 430 kts | 200° |
| 2026-02-17 07:01 | 40.50680 | 139.94933 | 32057 ft | 431 kts | 200° |
| 2026-02-17 07:01 | 40.44981 | 139.92606 | 32063 ft | 427 kts | 206° |
| 2026-02-17 07:02 | 40.39568 | 139.89561 | 32085 ft | 422 kts | 212° |
| 2026-02-17 07:02 | 40.34381 | 139.86072 | 32103 ft | 422 kts | 213° |
| 2026-02-17 07:03 | 40.26544 | 139.80803 | 32121 ft | 421 kts | 213° |
| 2026-02-17 07:03 | 40.21331 | 139.77303 | 32148 ft | 421 kts | 213° |
| 2026-02-17 07:04 | 40.16159 | 139.73836 | 32106 ft | 421 kts | 213° |
| 2026-02-17 07:04 | 40.10923 | 139.70331 | 32138 ft | 421 kts | 213° |
| 2026-02-17 07:05 | 40.05712 | 139.66852 | 32127 ft | 421 kts | 213° |
| 2026-02-17 07:05 | 40.00477 | 139.63422 | 32126 ft | 422 kts | 212° |
| 2026-02-17 07:06 | 39.95248 | 139.60033 | 32127 ft | 422 kts | 213° |
| 2026-02-17 07:07 | 39.87347 | 139.54909 | 32137 ft | 422 kts | 212° |
| 2026-02-17 07:07 | 39.82097 | 139.51511 | 32124 ft | 422 kts | 213° |
| 2026-02-17 07:08 | 39.76885 | 139.48140 | 32120 ft | 421 kts | 213° |
| 2026-02-17 07:08 | 39.71627 | 139.44745 | 32118 ft | 421 kts | 213° |
| 2026-02-17 07:09 | 39.65555 | 139.40831 | 32134 ft | 420 kts | 213° |
| 2026-02-17 07:09 | 39.61182 | 139.38019 | 32113 ft | 419 kts | 213° |
| 2026-02-17 07:10 | 39.55986 | 139.34682 | 32140 ft | 419 kts | 212° |
| 2026-02-17 07:10 | 39.50775 | 139.31340 | 32131 ft | 419 kts | 213° |
| 2026-02-17 07:11 | 39.42042 | 139.25746 | 32127 ft | 420 kts | 212° |
| 2026-02-17 07:11 | 39.37688 | 139.22967 | 32111 ft | 419 kts | 213° |
| 2026-02-17 07:12 | 39.32476 | 139.19647 | 32118 ft | 418 kts | 213° |
| 2026-02-17 07:12 | 39.27253 | 139.16321 | 32147 ft | 418 kts | 212° |
| 2026-02-17 07:13 | 39.22047 | 139.13013 | 32131 ft | 418 kts | 213° |
| 2026-02-17 07:13 | 39.16842 | 139.09711 | 32118 ft | 418 kts | 213° |
| 2026-02-17 07:14 | 39.11617 | 139.06403 | 32126 ft | 417 kts | 213° |
| 2026-02-17 07:15 | 39.03791 | 139.01456 | 32143 ft | 418 kts | 213° |
| 2026-02-17 07:15 | 38.98640 | 138.98209 | 32153 ft | 417 kts | 213° |
| 2026-02-17 07:16 | 38.93443 | 138.94934 | 32107 ft | 417 kts | 213° |
| 2026-02-17 07:16 | 38.87400 | 138.91135 | 32130 ft | 416 kts | 213° |
| 2026-02-17 07:17 | 38.83062 | 138.88409 | 32153 ft | 416 kts | 213° |
| 2026-02-17 07:17 | 38.77842 | 138.85146 | 32108 ft | 415 kts | 213° |
| 2026-02-17 07:18 | 38.72666 | 138.81906 | 32142 ft | 414 kts | 213° |
| 2026-02-17 07:18 | 38.67517 | 138.78690 | 32155 ft | 414 kts | 214° |
| 2026-02-17 07:19 | 38.59769 | 138.73856 | 32153 ft | 414 kts | 214° |
| 2026-02-17 07:19 | 38.54606 | 138.70648 | 32134 ft | 412 kts | 214° |
| 2026-02-17 07:20 | 38.49432 | 138.67432 | 32139 ft | 413 kts | 214° |
| 2026-02-17 07:20 | 38.44304 | 138.64252 | 32138 ft | 412 kts | 214° |
| 2026-02-17 07:21 | 38.39149 | 138.61058 | 32155 ft | 412 kts | 214° |
| 2026-02-17 07:21 | 38.33978 | 138.57860 | 32149 ft | 412 kts | 214° |
| 2026-02-17 07:22 | 38.28838 | 138.54684 | 32135 ft | 413 kts | 214° |
| 2026-02-17 07:23 | 38.21117 | 138.49928 | 32144 ft | 411 kts | 214° |
| 2026-02-17 07:23 | 38.13448 | 138.45048 | 32099 ft | 406 kts | 219° |
| 2026-02-17 07:24 | 38.08942 | 138.40967 | 32103 ft | 397 kts | 228° |
| 2026-02-17 07:24 | 38.05100 | 138.36067 | 32120 ft | 389 kts | 236° |
| 2026-02-17 07:25 | 38.01999 | 138.30542 | 32135 ft | 383 kts | 244° |
| 2026-02-17 07:25 | 37.99366 | 138.24651 | 32107 ft | 385 kts | 245° |
| 2026-02-17 07:26 | 37.96766 | 138.18777 | 32156 ft | 383 kts | 245° |
| 2026-02-17 07:27 | 37.92874 | 138.09979 | 32103 ft | 382 kts | 245° |
| 2026-02-17 07:27 | 37.90285 | 138.04152 | 32192 ft | 382 kts | 244° |
| 2026-02-17 07:28 | 37.87656 | 137.98247 | 32131 ft | 384 kts | 244° |
| 2026-02-17 07:28 | 37.85050 | 137.92406 | 32151 ft | 382 kts | 244° |
| 2026-02-17 07:29 | 37.82447 | 137.86577 | 32153 ft | 385 kts | 244° |
| 2026-02-17 07:29 | 37.79807 | 137.80672 | 32133 ft | 385 kts | 244° |
| 2026-02-17 07:30 | 37.77177 | 137.74803 | 32127 ft | 385 kts | 244° |
| 2026-02-17 07:30 | 37.74556 | 137.68964 | 32165 ft | 383 kts | 244° |
| 2026-02-17 07:31 | 37.70636 | 137.60255 | 32143 ft | 379 kts | 245° |
| 2026-02-17 07:31 | 37.68043 | 137.54491 | 32135 ft | 379 kts | 245° |
| 2026-02-17 07:32 | 37.65008 | 137.47768 | 32160 ft | 380 kts | 245° |
| 2026-02-17 07:32 | 37.62824 | 137.42941 | 32136 ft | 379 kts | 245° |
| 2026-02-17 07:33 | 37.60220 | 137.37193 | 32177 ft | 380 kts | 245° |
| 2026-02-17 07:33 | 37.57603 | 137.31432 | 32128 ft | 379 kts | 244° |
| 2026-02-17 07:34 | 37.54998 | 137.25708 | 32149 ft | 378 kts | 244° |
| 2026-02-17 07:35 | 37.50833 | 137.16574 | 32144 ft | 380 kts | 244° |
| 2026-02-17 07:35 | 37.48198 | 137.10808 | 32117 ft | 381 kts | 244° |
| 2026-02-17 07:36 | 37.45559 | 137.05040 | 32135 ft | 381 kts | 244° |
| 2026-02-17 07:36 | 37.42928 | 136.99300 | 32137 ft | 381 kts | 244° |
| 2026-02-17 07:37 | 37.40286 | 136.93550 | 32116 ft | 381 kts | 244° |
| 2026-02-17 07:37 | 37.37638 | 136.87793 | 32123 ft | 379 kts | 244° |
| 2026-02-17 07:38 | 37.35011 | 136.82094 | 32115 ft | 378 kts | 244° |
| 2026-02-17 07:38 | 37.32378 | 136.76390 | 32093 ft | 379 kts | 244° |
| 2026-02-17 07:39 | 37.28405 | 136.67802 | 32120 ft | 379 kts | 244° |
| 2026-02-17 07:39 | 37.25754 | 136.62089 | 32114 ft | 378 kts | 244° |
| 2026-02-17 07:40 | 37.23124 | 136.56430 | 32130 ft | 376 kts | 244° |
| 2026-02-17 07:40 | 37.20481 | 136.50746 | 32147 ft | 379 kts | 244° |
| 2026-02-17 07:41 | 37.17831 | 136.45062 | 32119 ft | 377 kts | 244° |
| 2026-02-17 07:41 | 37.15182 | 136.39389 | 32142 ft | 378 kts | 245° |
| 2026-02-17 07:42 | 37.12543 | 136.33748 | 32149 ft | 376 kts | 244° |
| 2026-02-17 07:43 | 37.08592 | 136.25317 | 32164 ft | 375 kts | 244° |
| 2026-02-17 07:43 | 37.05954 | 136.19693 | 32139 ft | 376 kts | 244° |
| 2026-02-17 07:44 | 37.03296 | 136.14044 | 32137 ft | 376 kts | 244° |
| 2026-02-17 07:44 | 37.00661 | 136.08449 | 32168 ft | 375 kts | 244° |
| 2026-02-17 07:45 | 36.98003 | 136.02823 | 32140 ft | 375 kts | 244° |
| 2026-02-17 07:45 | 36.95356 | 135.97237 | 32150 ft | 375 kts | 244° |
| 2026-02-17 07:46 | 36.92710 | 135.91656 | 32129 ft | 374 kts | 244° |
| 2026-02-17 07:46 | 36.90065 | 135.86087 | 32155 ft | 375 kts | 244° |
| 2026-02-17 07:47 | 36.86071 | 135.77696 | 32129 ft | 374 kts | 244° |
| 2026-02-17 07:47 | 36.83439 | 135.72172 | 32180 ft | 374 kts | 244° |
| 2026-02-17 07:48 | 36.80824 | 135.66693 | 32137 ft | 373 kts | 245° |
| 2026-02-17 07:48 | 36.78162 | 135.61137 | 32139 ft | 371 kts | 245° |
| 2026-02-17 07:49 | 36.75531 | 135.55633 | 32160 ft | 372 kts | 245° |
| 2026-02-17 07:49 | 36.72874 | 135.50089 | 32179 ft | 375 kts | 244° |
| 2026-02-17 07:50 | 36.70193 | 135.44522 | 32151 ft | 374 kts | 245° |
| 2026-02-17 07:51 | 36.66218 | 135.36272 | 32138 ft | 371 kts | 245° |
| 2026-02-17 07:51 | 36.63556 | 135.30751 | 32155 ft | 371 kts | 244° |
| 2026-02-17 07:52 | 36.60905 | 135.25261 | 32141 ft | 371 kts | 244° |
| 2026-02-17 07:52 | 36.58261 | 135.19800 | 32170 ft | 371 kts | 244° |
| 2026-02-17 07:53 | 36.55599 | 135.14307 | 32148 ft | 372 kts | 244° |
| 2026-02-17 07:53 | 36.52934 | 135.08824 | 32144 ft | 371 kts | 244° |
| 2026-02-17 07:54 | 36.48945 | 135.00626 | 32161 ft | 369 kts | 245° |
| 2026-02-17 07:55 | 36.44965 | 134.92462 | 32147 ft | 370 kts | 245° |
| 2026-02-17 07:55 | 36.42303 | 134.87019 | 32155 ft | 370 kts | 245° |
| 2026-02-17 07:56 | 36.39642 | 134.81581 | 32164 ft | 370 kts | 244° |
| 2026-02-17 07:56 | 36.36972 | 134.76138 | 32147 ft | 369 kts | 245° |
| 2026-02-17 07:57 | 36.34306 | 134.70709 | 32150 ft | 368 kts | 245° |
| 2026-02-17 07:57 | 36.31655 | 134.65320 | 32156 ft | 367 kts | 245° |
| 2026-02-17 07:58 | 36.29008 | 134.59944 | 32158 ft | 366 kts | 245° |
| 2026-02-17 07:58 | 36.26358 | 134.54565 | 32143 ft | 368 kts | 245° |
| 2026-02-17 07:59 | 36.22380 | 134.46527 | 32154 ft | 365 kts | 245° |
| 2026-02-17 07:59 | 36.19704 | 134.41133 | 32151 ft | 367 kts | 245° |
| 2026-02-17 08:00 | 36.17053 | 134.35797 | 32136 ft | 365 kts | 245° |
| 2026-02-17 08:00 | 36.14386 | 134.30441 | 32139 ft | 366 kts | 245° |
| 2026-02-17 08:01 | 36.11722 | 134.25093 | 32136 ft | 365 kts | 245° |
| 2026-02-17 08:01 | 36.09072 | 134.19775 | 32152 ft | 366 kts | 245° |
| 2026-02-17 08:02 | 36.06404 | 134.14433 | 32142 ft | 364 kts | 245° |
| 2026-02-17 08:03 | 36.02428 | 134.06483 | 32150 ft | 364 kts | 245° |
| 2026-02-17 08:03 | 35.99782 | 134.01198 | 32156 ft | 364 kts | 245° |
| 2026-02-17 08:04 | 35.97128 | 133.95920 | 32154 ft | 363 kts | 245° |
| 2026-02-17 08:04 | 35.94465 | 133.90628 | 32154 ft | 364 kts | 245° |
| 2026-02-17 08:05 | 35.91796 | 133.85338 | 32142 ft | 363 kts | 245° |
| 2026-02-17 08:05 | 35.89146 | 133.80089 | 32152 ft | 362 kts | 245° |
| 2026-02-17 08:06 | 35.86470 | 133.74795 | 32138 ft | 363 kts | 245° |
| 2026-02-17 08:06 | 35.83796 | 133.69511 | 32145 ft | 363 kts | 245° |
| 2026-02-17 08:07 | 35.79791 | 133.61616 | 32106 ft | 364 kts | 245° |
| 2026-02-17 08:07 | 35.77122 | 133.56360 | 32132 ft | 364 kts | 246° |
| 2026-02-17 08:08 | 35.74451 | 133.51109 | 32130 ft | 363 kts | 246° |
| 2026-02-17 08:08 | 35.71766 | 133.45839 | 32124 ft | 364 kts | 245° |
| 2026-02-17 08:09 | 35.69082 | 133.40579 | 32135 ft | 363 kts | 245° |
| 2026-02-17 08:09 | 35.66391 | 133.35312 | 32158 ft | 363 kts | 245° |
| 2026-02-17 08:10 | 35.63715 | 133.30080 | 32145 ft | 363 kts | 245° |
| 2026-02-17 08:11 | 35.59691 | 133.22234 | 32161 ft | 364 kts | 245° |
| 2026-02-17 08:11 | 35.56857 | 133.17064 | 32143 ft | 368 kts | 241° |
| 2026-02-17 08:12 | 35.53197 | 133.11948 | 32142 ft | 378 kts | 234° |
| 2026-02-17 08:12 | 35.49197 | 133.07677 | 32163 ft | 386 kts | 228° |
| 2026-02-17 08:13 | 35.44658 | 133.04015 | 32107 ft | 396 kts | 221° |
| 2026-02-17 08:13 | 35.39813 | 133.00794 | 32142 ft | 396 kts | 221° |
| 2026-02-17 08:14 | 35.34956 | 132.97601 | 32123 ft | 398 kts | 220° |
| 2026-02-17 08:14 | 35.30082 | 132.94409 | 32133 ft | 397 kts | 221° |
| 2026-02-17 08:15 | 35.22792 | 132.89651 | 32129 ft | 398 kts | 221° |
| 2026-02-17 08:15 | 35.17886 | 132.86459 | 32119 ft | 397 kts | 221° |
| 2026-02-17 08:16 | 35.13040 | 132.83270 | 32120 ft | 397 kts | 221° |
| 2026-02-17 08:16 | 35.08201 | 132.80070 | 32074 ft | 395 kts | 221° |
| 2026-02-17 08:17 | 35.03331 | 132.76863 | 32079 ft | 396 kts | 221° |
| 2026-02-17 08:17 | 34.98505 | 132.73689 | 32053 ft | 396 kts | 221° |
| 2026-02-17 08:18 | 34.93661 | 132.70511 | 32065 ft | 395 kts | 221° |
| 2026-02-17 08:19 | 34.86386 | 132.65744 | 32101 ft | 395 kts | 221° |
| 2026-02-17 08:19 | 34.81532 | 132.62564 | 32057 ft | 395 kts | 221° |
| 2026-02-17 08:20 | 34.76727 | 132.59424 | 32076 ft | 392 kts | 222° |
| 2026-02-17 08:20 | 34.71897 | 132.56264 | 32084 ft | 393 kts | 221° |
| 2026-02-17 08:21 | 34.67096 | 132.53136 | 32067 ft | 392 kts | 222° |
| 2026-02-17 08:21 | 34.62286 | 132.49997 | 32068 ft | 394 kts | 222° |
| 2026-02-17 08:22 | 34.57458 | 132.46860 | 32114 ft | 391 kts | 222° |
| 2026-02-17 08:22 | 34.52655 | 132.43732 | 32056 ft | 392 kts | 221° |
| 2026-02-17 08:23 | 34.45427 | 132.39035 | 32083 ft | 392 kts | 222° |
| 2026-02-17 08:23 | 34.40640 | 132.35945 | 32092 ft | 389 kts | 222° |
| 2026-02-17 08:24 | 34.35902 | 132.32867 | 32083 ft | 390 kts | 222° |
| 2026-02-17 08:24 | 34.31129 | 132.29767 | 32125 ft | 389 kts | 222° |
| 2026-02-17 08:25 | 34.26373 | 132.26678 | 32093 ft | 389 kts | 221° |
| 2026-02-17 08:25 | 34.21592 | 132.23573 | 32130 ft | 391 kts | 221° |
| 2026-02-17 08:26 | 34.16799 | 132.20468 | 32063 ft | 389 kts | 223° |
| 2026-02-17 08:27 | 34.09682 | 132.15877 | 32156 ft | 389 kts | 221° |
| 2026-02-17 08:27 | 34.04732 | 132.13097 | 32144 ft | 396 kts | 218° |
| 2026-02-17 08:28 | 33.99670 | 132.10443 | 32135 ft | 394 kts | 218° |
| 2026-02-17 08:28 | 33.94645 | 132.07816 | 32099 ft | 392 kts | 218° |
| 2026-02-17 08:29 | 33.89624 | 132.05206 | 32209 ft | 395 kts | 218° |
| 2026-02-17 08:29 | 33.84592 | 132.02600 | 32037 ft | 393 kts | 218° |
| 2026-02-17 08:30 | 33.79564 | 131.99999 | 32132 ft | 392 kts | 218° |
| 2026-02-17 08:30 | 33.74574 | 131.97418 | 32049 ft | 391 kts | 219° |
| 2026-02-17 08:31 | 33.67071 | 131.93541 | 32128 ft | 387 kts | 219° |
| 2026-02-17 08:31 | 33.62116 | 131.90976 | 32021 ft | 390 kts | 219° |
| 2026-02-17 08:32 | 33.59644 | 131.89697 | 32167 ft | 387 kts | 219° |
| 2026-02-17 08:32 | 33.57168 | 131.88414 | 32089 ft | 389 kts | 219° |
| 2026-02-17 08:32 | 33.52204 | 131.85860 | 32098 ft | 386 kts | 219° |
| 2026-02-17 08:33 | 33.47221 | 131.83284 | 32089 ft | 391 kts | 219° |
| 2026-02-17 08:33 | 33.42270 | 131.80736 | 32094 ft | 388 kts | 219° |
| 2026-02-17 08:34 | 33.37313 | 131.78188 | 32120 ft | 388 kts | 219° |
| 2026-02-17 08:35 | 33.29888 | 131.74373 | 32051 ft | 386 kts | 219° |
| 2026-02-17 08:35 | 33.24965 | 131.71831 | 32077 ft | 382 kts | 220° |
| 2026-02-17 08:36 | 33.20300 | 131.68977 | 32152 ft | 371 kts | 225° |
| 2026-02-17 08:36 | 33.15933 | 131.65796 | 32069 ft | 366 kts | 227° |
| 2026-02-17 08:37 | 33.11623 | 131.62616 | 32147 ft | 368 kts | 227° |
| 2026-02-17 08:37 | 33.07302 | 131.59415 | 32057 ft | 365 kts | 227° |
| 2026-02-17 08:38 | 33.02970 | 131.56206 | 32129 ft | 367 kts | 227° |
| 2026-02-17 08:38 | 32.98666 | 131.53024 | 32071 ft | 364 kts | 228° |
| 2026-02-17 08:39 | 32.92197 | 131.48235 | 32131 ft | 365 kts | 227° |
| 2026-02-17 08:39 | 32.87891 | 131.45053 | 32040 ft | 364 kts | 227° |
| 2026-02-17 08:40 | 32.83596 | 131.41887 | 32047 ft | 364 kts | 227° |
| 2026-02-17 08:40 | 32.79321 | 131.38721 | 32092 ft | 361 kts | 227° |
| 2026-02-17 08:41 | 32.75066 | 131.35535 | 32041 ft | 362 kts | 228° |
| 2026-02-17 08:41 | 32.70781 | 131.32327 | 32090 ft | 364 kts | 228° |
| 2026-02-17 08:43 | 32.60738 | 131.24826 | 32059 ft | 362 kts | 227° |
| 2026-02-17 08:43 | 32.56472 | 131.21658 | 32066 ft | 360 kts | 227° |
| 2026-02-17 08:44 | 32.52248 | 131.18517 | 32059 ft | 360 kts | 227° |
| 2026-02-17 08:44 | 32.47980 | 131.15338 | 32049 ft | 361 kts | 227° |
| 2026-02-17 08:45 | 32.43761 | 131.12207 | 32073 ft | 360 kts | 227° |
| 2026-02-17 08:45 | 32.39511 | 131.09073 | 32065 ft | 361 kts | 227° |
| 2026-02-17 08:46 | 32.35203 | 131.05957 | 32042 ft | 361 kts | 227° |
| 2026-02-17 08:46 | 32.30940 | 131.02876 | 32093 ft | 361 kts | 227° |
| 2026-02-17 08:47 | 32.24535 | 130.98244 | 32074 ft | 360 kts | 227° |
| 2026-02-17 08:47 | 32.20277 | 130.95165 | 32062 ft | 358 kts | 227° |
| 2026-02-17 08:48 | 32.16030 | 130.92101 | 32059 ft | 358 kts | 227° |
| 2026-02-17 08:48 | 32.11774 | 130.89027 | 32083 ft | 360 kts | 227° |
| 2026-02-17 08:49 | 32.07534 | 130.85921 | 32108 ft | 359 kts | 227° |
| 2026-02-17 08:49 | 32.03293 | 130.82812 | 32077 ft | 358 kts | 227° |
| 2026-02-17 08:50 | 31.99069 | 130.79718 | 32043 ft | 358 kts | 227° |
| 2026-02-17 08:51 | 31.92713 | 130.75072 | 32087 ft | 358 kts | 228° |
| 2026-02-17 08:51 | 31.88506 | 130.71999 | 32046 ft | 358 kts | 227° |
| 2026-02-17 08:52 | 31.84277 | 130.68906 | 32049 ft | 359 kts | 227° |
| 2026-02-17 08:52 | 31.80016 | 130.65805 | 32072 ft | 359 kts | 227° |
| 2026-02-17 08:53 | 31.75870 | 130.62643 | 32077 ft | 354 kts | 230° |
| 2026-02-17 08:53 | 31.71989 | 130.59131 | 32078 ft | 347 kts | 234° |
| 2026-02-17 08:54 | 31.68460 | 130.55350 | 32088 ft | 341 kts | 237° |
| 2026-02-17 08:54 | 31.65278 | 130.51343 | 32088 ft | 334 kts | 240° |
| 2026-02-17 08:55 | 31.60957 | 130.44957 | 32097 ft | 332 kts | 243° |
| 2026-02-17 08:55 | 31.58131 | 130.40701 | 32078 ft | 332 kts | 243° |
| 2026-02-17 08:56 | 31.55297 | 130.36424 | 32122 ft | 333 kts | 243° |
| 2026-02-17 08:56 | 31.52464 | 130.32143 | 32108 ft | 332 kts | 243° |
| 2026-02-17 08:57 | 31.49654 | 130.27890 | 32118 ft | 333 kts | 242° |
| 2026-02-17 08:57 | 31.46808 | 130.23581 | 32106 ft | 333 kts | 242° |
| 2026-02-17 08:58 | 31.43987 | 130.19318 | 32131 ft | 332 kts | 242° |
| 2026-02-17 08:59 | 31.39752 | 130.12926 | 32115 ft | 333 kts | 243° |
| 2026-02-17 08:59 | 31.36908 | 130.08632 | 32104 ft | 333 kts | 242° |
| 2026-02-17 09:00 | 31.34063 | 130.04349 | 32118 ft | 333 kts | 242° |
| 2026-02-17 09:00 | 31.31225 | 130.00081 | 32119 ft | 334 kts | 242° |
| 2026-02-17 09:01 | 31.28392 | 129.95827 | 32150 ft | 334 kts | 242° |
| 2026-02-17 09:01 | 31.25533 | 129.91550 | 32131 ft | 334 kts | 243° |
| 2026-02-17 09:02 | 31.22687 | 129.87285 | 32122 ft | 334 kts | 242° |
| 2026-02-17 09:02 | 31.19823 | 129.83005 | 32148 ft | 334 kts | 242° |
| 2026-02-17 09:03 | 31.15556 | 129.76628 | 32111 ft | 334 kts | 242° |
| 2026-02-17 09:03 | 31.12675 | 129.72334 | 32142 ft | 334 kts | 242° |
| 2026-02-17 09:04 | 31.09867 | 129.68147 | 32135 ft | 334 kts | 242° |
| 2026-02-17 09:04 | 31.07026 | 129.63922 | 32134 ft | 334 kts | 242° |
| 2026-02-17 09:05 | 31.04164 | 129.59663 | 32138 ft | 333 kts | 242° |
| 2026-02-17 09:05 | 31.01302 | 129.55411 | 32128 ft | 334 kts | 242° |
| 2026-02-17 09:06 | 30.98435 | 129.51154 | 32123 ft | 334 kts | 242° |
| 2026-02-17 09:07 | 30.94136 | 129.44783 | 32133 ft | 334 kts | 242° |
| 2026-02-17 09:07 | 30.91264 | 129.40533 | 32139 ft | 334 kts | 242° |
| 2026-02-17 09:08 | 30.88386 | 129.36276 | 32128 ft | 336 kts | 242° |
| 2026-02-17 09:08 | 30.85488 | 129.31992 | 32139 ft | 336 kts | 242° |
| 2026-02-17 09:09 | 30.82615 | 129.27747 | 32139 ft | 337 kts | 242° |
| 2026-02-17 09:09 | 30.79705 | 129.23453 | 32127 ft | 338 kts | 242° |
| 2026-02-17 09:10 | 30.76809 | 129.19171 | 32129 ft | 337 kts | 242° |
| 2026-02-17 09:10 | 30.73964 | 129.14842 | 32122 ft | 338 kts | 242° |
| 2026-02-17 09:11 | 30.69696 | 129.08345 | 32144 ft | 338 kts | 242° |
| 2026-02-17 09:11 | 30.66842 | 129.04005 | 32122 ft | 337 kts | 242° |
| 2026-02-17 09:12 | 30.64001 | 128.99692 | 32133 ft | 339 kts | 242° |
| 2026-02-17 09:12 | 30.61153 | 128.95381 | 32128 ft | 337 kts | 242° |
| 2026-02-17 09:13 | 30.58312 | 128.91071 | 32125 ft | 338 kts | 242° |
| 2026-02-17 09:13 | 30.55444 | 128.86728 | 32134 ft | 338 kts | 242° |
| 2026-02-17 09:14 | 30.52594 | 128.82426 | 32146 ft | 339 kts | 242° |
| 2026-02-17 09:15 | 30.48292 | 128.75928 | 32128 ft | 339 kts | 242° |
| 2026-02-17 09:15 | 30.45410 | 128.71585 | 32553 ft | 336 kts | 242° |
| 2026-02-17 09:15 | 30.43986 | 128.69446 | 32935 ft | 331 kts | 242° |
| 2026-02-17 09:16 | 30.42602 | 128.67362 | 33255 ft | 328 kts | 242° |
| 2026-02-17 09:16 | 30.41209 | 128.65265 | 33493 ft | 326 kts | 242° |
| 2026-02-17 09:16 | 30.39831 | 128.63196 | 33705 ft | 326 kts | 242° |
| 2026-02-17 09:16 | 30.38452 | 128.61121 | 33889 ft | 327 kts | 242° |
| 2026-02-17 09:17 | 30.37065 | 128.59035 | 34068 ft | 326 kts | 242° |
| 2026-02-17 09:17 | 30.35690 | 128.56975 | 34273 ft | 325 kts | 242° |
| 2026-02-17 09:17 | 30.34296 | 128.54883 | 34439 ft | 325 kts | 242° |
| 2026-02-17 09:17 | 30.32927 | 128.52821 | 34615 ft | 325 kts | 242° |
| 2026-02-17 09:18 | 30.31544 | 128.50748 | 34818 ft | 324 kts | 242° |
| 2026-02-17 09:18 | 30.30179 | 128.48703 | 34964 ft | 324 kts | 242° |
| 2026-02-17 09:18 | 30.28806 | 128.46646 | 35091 ft | 324 kts | 242° |
| 2026-02-17 09:19 | 30.26032 | 128.42493 | 35310 ft | 325 kts | 242° |
| 2026-02-17 09:19 | 30.24643 | 128.40413 | 35431 ft | 325 kts | 242° |
| 2026-02-17 09:19 | 30.23262 | 128.38351 | 35566 ft | 325 kts | 242° |
| 2026-02-17 09:19 | 30.21878 | 128.36281 | 35685 ft | 326 kts | 242° |
| 2026-02-17 09:20 | 30.20497 | 128.34222 | 35802 ft | 326 kts | 242° |
| 2026-02-17 09:20 | 30.19102 | 128.32138 | 35942 ft | 327 kts | 242° |
| 2026-02-17 09:20 | 30.17711 | 128.30066 | 36102 ft | 327 kts | 242° |
| 2026-02-17 09:20 | 30.16327 | 128.27997 | 36151 ft | 328 kts | 241° |
| 2026-02-17 09:21 | 30.13530 | 128.23828 | 36163 ft | 328 kts | 242° |
| 2026-02-17 09:21 | 30.10754 | 128.19698 | 36144 ft | 326 kts | 242° |
| 2026-02-17 09:22 | 30.07962 | 128.15543 | 36167 ft | 327 kts | 242° |
| 2026-02-17 09:23 | 30.03798 | 128.09357 | 36358 ft | 325 kts | 241° |
| 2026-02-17 09:23 | 30.02429 | 128.07330 | 36695 ft | 321 kts | 242° |
| 2026-02-17 09:23 | 30.01069 | 128.05316 | 36918 ft | 320 kts | 242° |
| 2026-02-17 09:23 | 29.99697 | 128.03285 | 37027 ft | 320 kts | 242° |
| 2026-02-17 09:24 | 29.98329 | 128.01256 | 37116 ft | 321 kts | 242° |
| 2026-02-17 09:24 | 29.96951 | 127.99208 | 37230 ft | 322 kts | 242° |
| 2026-02-17 09:24 | 29.95585 | 127.97180 | 37332 ft | 322 kts | 242° |
| 2026-02-17 09:25 | 29.92834 | 127.93115 | 37568 ft | 322 kts | 242° |
| 2026-02-17 09:25 | 29.91456 | 127.91071 | 37698 ft | 322 kts | 242° |
| 2026-02-17 09:25 | 29.90088 | 127.89050 | 37786 ft | 322 kts | 242° |
| 2026-02-17 09:25 | 29.88707 | 127.87015 | 37917 ft | 321 kts | 242° |
| 2026-02-17 09:26 | 29.87335 | 127.84993 | 38058 ft | 321 kts | 241° |
| 2026-02-17 09:26 | 29.84454 | 127.81043 | 38158 ft | 325 kts | 240° |
| 2026-02-17 09:27 | 29.80043 | 127.75106 | 38165 ft | 324 kts | 240° |
| 2026-02-17 09:27 | 29.77109 | 127.71156 | 38160 ft | 326 kts | 240° |
| 2026-02-17 09:28 | 29.74186 | 127.67233 | 38163 ft | 326 kts | 240° |
| 2026-02-17 09:28 | 29.71251 | 127.63299 | 38164 ft | 326 kts | 240° |
| 2026-02-17 09:29 | 29.68282 | 127.59319 | 38176 ft | 327 kts | 239° |
| 2026-02-17 09:29 | 29.65346 | 127.55389 | 38159 ft | 326 kts | 239° |
| 2026-02-17 09:30 | 29.60893 | 127.49438 | 38158 ft | 327 kts | 239° |
| 2026-02-17 09:31 | 29.56582 | 127.43423 | 38166 ft | 326 kts | 241° |
| 2026-02-17 09:31 | 29.53763 | 127.39362 | 38161 ft | 326 kts | 241° |
| 2026-02-17 09:32 | 29.50944 | 127.35291 | 38172 ft | 325 kts | 241° |
| 2026-02-17 09:32 | 29.48123 | 127.31219 | 38167 ft | 327 kts | 241° |
| 2026-02-17 09:33 | 29.45290 | 127.27132 | 38167 ft | 327 kts | 241° |
| 2026-02-17 09:33 | 29.42467 | 127.23051 | 38161 ft | 327 kts | 240° |
| 2026-02-17 09:34 | 29.39649 | 127.18993 | 38169 ft | 327 kts | 241° |
| 2026-02-17 09:35 | 29.35387 | 127.12855 | 38165 ft | 329 kts | 240° |
| 2026-02-17 09:35 | 29.32531 | 127.08746 | 38184 ft | 330 kts | 240° |
| 2026-02-17 09:36 | 29.29670 | 127.04639 | 38186 ft | 327 kts | 241° |
| 2026-02-17 09:36 | 29.26837 | 127.00571 | 38173 ft | 328 kts | 240° |
| 2026-02-17 09:37 | 29.23989 | 126.96484 | 38171 ft | 328 kts | 241° |
| 2026-02-17 09:37 | 29.21164 | 126.92434 | 38157 ft | 328 kts | 240° |
| 2026-02-17 09:38 | 29.18306 | 126.88341 | 38169 ft | 329 kts | 240° |
| 2026-02-17 09:38 | 29.15448 | 126.84255 | 38175 ft | 329 kts | 240° |
| 2026-02-17 09:39 | 29.11178 | 126.78160 | 38177 ft | 329 kts | 240° |
| 2026-02-17 09:39 | 29.08298 | 126.74049 | 38192 ft | 331 kts | 241° |
| 2026-02-17 09:40 | 29.05439 | 126.69976 | 38197 ft | 330 kts | 241° |
| 2026-02-17 09:40 | 29.02567 | 126.65881 | 38184 ft | 331 kts | 241° |
| 2026-02-17 09:41 | 28.99695 | 126.61794 | 38207 ft | 330 kts | 240° |
| 2026-02-17 09:41 | 28.96826 | 126.57719 | 38190 ft | 330 kts | 240° |
| 2026-02-17 09:42 | 28.93844 | 126.53683 | 38196 ft | 332 kts | 239° |
| 2026-02-17 09:43 | 28.89371 | 126.47670 | 38206 ft | 332 kts | 239° |
| 2026-02-17 09:43 | 28.86395 | 126.43661 | 38208 ft | 332 kts | 239° |
| 2026-02-17 09:44 | 28.83413 | 126.39648 | 38202 ft | 334 kts | 239° |
| 2026-02-17 09:44 | 28.80419 | 126.35616 | 38203 ft | 335 kts | 239° |
| 2026-02-17 09:45 | 28.77397 | 126.31557 | 38209 ft | 335 kts | 239° |
| 2026-02-17 09:45 | 28.74393 | 126.27519 | 38202 ft | 335 kts | 238° |
| 2026-02-17 09:46 | 28.71371 | 126.23462 | 38208 ft | 335 kts | 239° |
| 2026-02-17 09:46 | 28.68372 | 126.19437 | 38204 ft | 335 kts | 238° |
| 2026-02-17 09:47 | 28.63867 | 126.13406 | 38205 ft | 335 kts | 239° |
| 2026-02-17 09:47 | 28.60924 | 126.09301 | 38203 ft | 334 kts | 240° |
| 2026-02-17 09:48 | 28.58021 | 126.05194 | 38211 ft | 335 kts | 239° |
| 2026-02-17 09:48 | 28.55103 | 126.01077 | 38211 ft | 335 kts | 240° |
| 2026-02-17 09:49 | 28.52176 | 125.96950 | 38214 ft | 335 kts | 239° |
| 2026-02-17 09:49 | 28.49246 | 125.92825 | 38210 ft | 336 kts | 239° |
| 2026-02-17 09:50 | 28.46325 | 125.88712 | 38216 ft | 336 kts | 239° |
| 2026-02-17 09:51 | 28.41929 | 125.82547 | 38217 ft | 335 kts | 239° |
| 2026-02-17 09:51 | 28.38998 | 125.78432 | 38220 ft | 335 kts | 239° |
| 2026-02-17 09:52 | 28.36054 | 125.74303 | 38220 ft | 336 kts | 239° |
| 2026-02-17 09:52 | 28.33119 | 125.70197 | 38208 ft | 337 kts | 239° |
| 2026-02-17 09:53 | 28.30161 | 125.66063 | 38214 ft | 337 kts | 239° |
| 2026-02-17 09:53 | 28.27226 | 125.61961 | 38210 ft | 337 kts | 239° |
| 2026-02-17 09:54 | 28.24263 | 125.57823 | 38223 ft | 337 kts | 239° |
| 2026-02-17 09:54 | 28.21328 | 125.53729 | 38216 ft | 338 kts | 238° |
| 2026-02-17 09:55 | 28.16872 | 125.47527 | 38229 ft | 338 kts | 239° |
| 2026-02-17 09:55 | 28.13896 | 125.43378 | 38242 ft | 338 kts | 239° |
| 2026-02-17 09:56 | 28.10946 | 125.39277 | 38219 ft | 338 kts | 239° |
| 2026-02-17 09:56 | 28.07961 | 125.35134 | 38230 ft | 339 kts | 239° |
| 2026-02-17 09:57 | 28.04979 | 125.30998 | 38229 ft | 340 kts | 239° |
| 2026-02-17 09:57 | 28.01999 | 125.26869 | 38228 ft | 340 kts | 238° |
| 2026-02-17 09:58 | 27.99006 | 125.22726 | 38222 ft | 340 kts | 238° |
| 2026-02-17 09:59 | 27.94515 | 125.16509 | 38221 ft | 343 kts | 238° |
| 2026-02-17 09:59 | 27.91489 | 125.12333 | 38237 ft | 343 kts | 238° |
| 2026-02-17 10:00 | 27.88473 | 125.08173 | 38238 ft | 342 kts | 238° |
| 2026-02-17 10:00 | 27.85458 | 125.04013 | 38240 ft | 342 kts | 238° |
| 2026-02-17 10:01 | 27.82443 | 124.99862 | 38235 ft | 344 kts | 238° |
| 2026-02-17 10:01 | 27.79416 | 124.95695 | 38244 ft | 343 kts | 238° |
| 2026-02-17 10:02 | 27.76379 | 124.91518 | 38236 ft | 345 kts | 238° |
| 2026-02-17 10:02 | 27.73326 | 124.87326 | 38233 ft | 346 kts | 238° |
| 2026-02-17 10:03 | 27.68773 | 124.81076 | 38240 ft | 346 kts | 238° |
| 2026-02-17 10:03 | 27.65709 | 124.76877 | 38239 ft | 346 kts | 238° |
| 2026-02-17 10:04 | 27.62656 | 124.72697 | 38232 ft | 346 kts | 238° |
| 2026-02-17 10:04 | 27.59602 | 124.68527 | 38240 ft | 347 kts | 238° |
| 2026-02-17 10:05 | 27.56528 | 124.64326 | 38230 ft | 348 kts | 238° |
| 2026-02-17 10:05 | 27.53457 | 124.60134 | 38239 ft | 347 kts | 238° |
| 2026-02-17 10:06 | 27.50376 | 124.55927 | 38222 ft | 348 kts | 238° |
| 2026-02-17 10:07 | 27.45758 | 124.49628 | 38241 ft | 348 kts | 238° |
| 2026-02-17 10:07 | 27.42679 | 124.45438 | 38232 ft | 350 kts | 238° |
| 2026-02-17 10:08 | 27.39575 | 124.41215 | 38226 ft | 350 kts | 238° |
| 2026-02-17 10:08 | 27.36470 | 124.36997 | 38231 ft | 350 kts | 238° |
| 2026-02-17 10:09 | 27.33373 | 124.32791 | 38244 ft | 349 kts | 238° |
| 2026-02-17 10:09 | 27.30290 | 124.28602 | 38245 ft | 350 kts | 237° |
| 2026-02-17 10:10 | 27.27173 | 124.24377 | 38221 ft | 352 kts | 237° |
| 2026-02-17 10:10 | 27.24041 | 124.20139 | 38227 ft | 350 kts | 238° |
| 2026-02-17 10:11 | 27.19395 | 124.13846 | 38229 ft | 350 kts | 237° |
| 2026-02-17 10:11 | 27.16273 | 124.09626 | 38220 ft | 353 kts | 237° |
| 2026-02-17 10:12 | 27.13145 | 124.05403 | 38220 ft | 351 kts | 237° |
| 2026-02-17 10:12 | 27.10021 | 124.01190 | 38229 ft | 351 kts | 237° |
| 2026-02-17 10:13 | 27.06877 | 123.96988 | 38227 ft | 352 kts | 237° |
| 2026-02-17 10:13 | 27.03727 | 123.92812 | 38222 ft | 354 kts | 237° |
| 2026-02-17 10:14 | 27.00703 | 123.88475 | 38220 ft | 350 kts | 240° |
| 2026-02-17 10:15 | 26.96462 | 123.81866 | 38231 ft | 351 kts | 240° |
| 2026-02-17 10:15 | 26.93627 | 123.77454 | 38234 ft | 351 kts | 240° |
| 2026-02-17 10:16 | 26.90757 | 123.72992 | 38240 ft | 351 kts | 240° |
| 2026-02-17 10:16 | 26.87900 | 123.68559 | 38232 ft | 352 kts | 240° |
| 2026-02-17 10:17 | 26.85030 | 123.64110 | 38231 ft | 353 kts | 240° |
| 2026-02-17 10:17 | 26.82165 | 123.59674 | 38240 ft | 352 kts | 240° |
| 2026-02-17 10:18 | 26.79313 | 123.55262 | 38232 ft | 353 kts | 240° |
| 2026-02-17 10:18 | 26.76440 | 123.50816 | 38234 ft | 353 kts | 240° |
| 2026-02-17 10:19 | 26.72107 | 123.44128 | 38233 ft | 353 kts | 240° |
| 2026-02-17 10:19 | 26.69239 | 123.39705 | 38229 ft | 353 kts | 240° |
| 2026-02-17 10:20 | 26.66362 | 123.35274 | 38234 ft | 353 kts | 240° |
| 2026-02-17 10:20 | 26.63466 | 123.30821 | 38237 ft | 354 kts | 240° |
| 2026-02-17 10:21 | 26.60582 | 123.26387 | 38232 ft | 354 kts | 240° |
| 2026-02-17 10:21 | 26.57697 | 123.21949 | 38224 ft | 355 kts | 240° |
| 2026-02-17 10:22 | 26.54792 | 123.17493 | 38233 ft | 356 kts | 239° |
| 2026-02-17 10:23 | 26.50400 | 123.10764 | 38227 ft | 359 kts | 240° |
| 2026-02-17 10:23 | 26.47464 | 123.06271 | 38227 ft | 359 kts | 239° |
| 2026-02-17 10:24 | 26.44517 | 123.01768 | 38229 ft | 358 kts | 240° |
| 2026-02-17 10:24 | 26.41591 | 122.97296 | 38229 ft | 358 kts | 240° |
| 2026-02-17 10:25 | 26.38651 | 122.92808 | 38229 ft | 358 kts | 239° |
| 2026-02-17 10:25 | 26.35717 | 122.88335 | 38227 ft | 359 kts | 239° |